Black Eagle — WDJJ — position and weather

sailwx.info

Track history (hours):
 
Tides and Currents Weather Stations Pressure Air Temp Water Temp Dewpoint Dewpoint Depression Visibility Wind Speed Wind Dir Waves Ship Positions

Black Eagle

Owner: Sealift Inc., Oyster Bay, NY. More information available from US FCC via Universal Licensing System and Coast Guard Vessel Documentation Center.

Last reported at 2015-Jan-13 17:31 UTC. Time now 2015-Jan-31 13:13 UTC.
Position N 37°55' W 122°22'.
Warning: this ship's position is 17 days out of date.

Length 189 m; draft 9.5 m.

MMSI: 369542000.

Date/timePositionNaut miles runAvg speedWind from/ knotsBaromVisibWave heightAir tempDewpointWater temp
2015-Jan-13 17:31N 37°55' W 122°22'0 0.0
2015-Jan-13 16:30N 37°55' W 122°22'0 0.0
2015-Jan-13 15:33N 37°55' W 122°22'  
2015-Jan-11 04:29N 37°55' W 122°22'0 0.0
2015-Jan-11 03:29N 37°55' W 122°22'0 0.0
2015-Jan-11 02:32N 37°55' W 122°22'0 0.0
2015-Jan-11 01:31N 37°55' W 122°22'0 0.0
2015-Jan-11 00:27N 37°55' W 122°22'0 0.0
2015-Jan-10 23:33N 37°55' W 122°22'0 0.0
2015-Jan-10 22:26N 37°55' W 122°22'0 0.0
2015-Jan-10 21:33N 37°55' W 122°22'1 1.3
2015-Jan-10 20:33N 37°54' W 122°23'3 2.7
2015-Jan-10 19:33N 37°54' W 122°27'10 9.6
2015-Jan-10 18:33N 38°03' W 122°21'10 9.8
2015-Jan-10 17:33N 38°02' W 122°08'6 5.6
2015-Jan-10 16:29N 38°04' W 122°01'0 0.0
2015-Jan-10 15:29N 38°04' W 122°01'0 0.0
2015-Jan-10 14:29N 38°04' W 122°01'0 0.0
2015-Jan-10 13:28N 38°04' W 122°01'0 0.0
2015-Jan-10 12:28N 38°04' W 122°01'0 0.0
2015-Jan-10 10:15N 38°04' W 122°01'0 0.0
2015-Jan-10 08:26N 38°04' W 122°01'0 0.0
2015-Jan-10 07:19N 38°04' W 122°01'0 0.0
2015-Jan-10 06:19N 38°04' W 122°01'0 0.0
2015-Jan-10 05:31N 38°04' W 122°01'0 0.0
2015-Jan-10 04:30N 38°04' W 122°01'0 0.0
2015-Jan-10 03:30N 38°04' W 122°01'0 0.0
2015-Jan-10 02:29N 38°04' W 122°01'0 0.0
2015-Jan-09 17:25N 38°04' W 122°01'0 0.0
2015-Jan-09 16:31N 38°04' W 122°01'0 0.0
2015-Jan-09 15:25N 38°04' W 122°01'0 0.0
2015-Jan-09 14:30N 38°04' W 122°01'0 0.0
2015-Jan-09 13:18N 38°04' W 122°01'0 0.0
2015-Jan-09 12:29N 38°04' W 122°01'0 0.0
2015-Jan-09 11:29N 38°04' W 122°01'0 0.0
2015-Jan-09 06:15N 38°04' W 122°01'0 0.0
2015-Jan-09 05:32N 38°04' W 122°01'0 0.0
2015-Jan-09 02:31N 38°04' W 122°01'0 0.0
2015-Jan-09 01:25N 38°04' W 122°01'0 0.0
2015-Jan-09 00:30N 38°04' W 122°01'0 0.0
2015-Jan-08 22:05N 38°04' W 122°01'0 0.0
2015-Jan-08 21:23N 38°04' W 122°01'0 0.0
2015-Jan-08 20:10N 38°04' W 122°01'0 0.0
2015-Jan-08 19:28N 38°04' W 122°01'0 0.0
2015-Jan-08 17:33N 38°04' W 122°01'0 0.0
2015-Jan-08 16:33N 38°04' W 122°01'0 0.0
2015-Jan-08 15:26N 38°04' W 122°01'0 0.0
2015-Jan-08 14:32N 38°04' W 122°01'0 0.0
2015-Jan-08 12:31N 38°04' W 122°01'0 0.0
2015-Jan-08 07:29N 38°04' W 122°01'0 0.0
2015-Jan-08 06:04N 38°04' W 122°01'0 0.0
2015-Jan-08 05:28N 38°04' W 122°01'0 0.0
2015-Jan-08 04:27N 38°04' W 122°01'0 0.0
2015-Jan-08 03:45N 38°04' W 122°01'0 0.0
2015-Jan-07 18:29N 38°04' W 122°01'0 0.0
2015-Jan-07 17:05N 38°04' W 122°01'0 0.0
2015-Jan-07 16:28N 38°04' W 122°01'0 0.0
2015-Jan-07 15:28N 38°04' W 122°01'0 0.0
2015-Jan-07 14:34N 38°04' W 122°01'0 0.0
2015-Jan-07 13:33N 38°04' W 122°01'0 0.0
2015-Jan-07 12:33N 38°04' W 122°01'0 0.0
2015-Jan-07 11:32N 38°04' W 122°01'0 0.0
2015-Jan-07 10:32N 38°04' W 122°01'0 0.0
2015-Jan-07 09:31N 38°04' W 122°01'0 0.0
2015-Jan-07 08:25N 38°04' W 122°01'0 0.0
2015-Jan-07 07:30N 38°04' W 122°01'0 0.0
2015-Jan-07 06:30N 38°04' W 122°01'0 0.0
2015-Jan-07 05:30N 38°04' W 122°01'0 0.0
2015-Jan-07 04:29N 38°04' W 122°01'0 0.0
2015-Jan-07 03:29N 38°04' W 122°01'0 0.0
2015-Jan-07 02:28N 38°04' W 122°01'0 0.0
2015-Jan-07 01:22N 38°04' W 122°01'0 0.0
2015-Jan-07 00:33N 38°04' W 122°01'0 0.0
2015-Jan-06 23:15N 38°04' W 122°01'0 0.0
2015-Jan-06 22:20N 38°04' W 122°01'0 0.0
2015-Jan-06 21:32N 38°04' W 122°01'0 0.0
2015-Jan-06 20:26N 38°04' W 122°01'0 0.0
2015-Jan-06 19:31N 38°04' W 122°01'0 0.0
2015-Jan-06 18:31N 38°04' W 122°01'0 0.0
2015-Jan-06 16:24N 38°04' W 122°01'0 0.0
2015-Jan-06 15:31N 38°04' W 122°01'0 0.0
2015-Jan-06 14:23N 38°04' W 122°01'0 0.0
2015-Jan-06 13:17N 38°04' W 122°01'0 0.0
2015-Jan-06 12:28N 38°04' W 122°01'0 0.0
2015-Jan-06 11:22N 38°04' W 122°01'0 0.0
2015-Jan-06 10:33N 38°04' W 122°01'0 0.0
2015-Jan-06 09:33N 38°04' W 122°01'0 0.0
2015-Jan-06 08:33N 38°04' W 122°01'0 0.0
2015-Jan-06 07:26N 38°04' W 122°01'0 0.0
2015-Jan-06 06:26N 38°04' W 122°01'0 0.0
2015-Jan-06 05:19N 38°04' W 122°01'0 0.0
2015-Jan-06 04:31N 38°04' W 122°01'0 0.0
2015-Jan-06 03:30N 38°04' W 122°01'0 0.0
2015-Jan-06 02:30N 38°04' W 122°01'0 0.0
2015-Jan-06 01:23N 38°04' W 122°01'0 0.0
2015-Jan-06 00:29N 38°04' W 122°01'0 0.0
2015-Jan-05 20:09N 38°04' W 122°01'0 0.0
2015-Jan-05 19:21N 38°04' W 122°01'  
Track history (hours):
 
Tides and Currents Weather Stations Pressure Air Temp Water Temp Dewpoint Dewpoint Depression Visibility Wind Speed Wind Dir Waves Ship Positions

Black Eagle

Owner: Sealift Inc., Oyster Bay, NY. More information available from US FCC via Universal Licensing System and Coast Guard Vessel Documentation Center.

Last reported at 2015-Jan-13 17:31 UTC. Time now 2015-Jan-31 13:13 UTC.
Position N 37°55' W 122°22'.
Warning: this ship's position is 17 days out of date.

Length 189 m; draft 9.5 m.

MMSI: 369542000.

Date/timePositionNaut miles runAvg speedWind from/ knotsBaromVisibWave heightAir tempDewpointWater temp
2015-Jan-13 17:31N 37°55' W 122°22'0 0.0
2015-Jan-13 16:30N 37°55' W 122°22'0 0.0
2015-Jan-13 15:33N 37°55' W 122°22'  
2015-Jan-11 04:29N 37°55' W 122°22'0 0.0
2015-Jan-11 03:29N 37°55' W 122°22'0 0.0
2015-Jan-11 02:32N 37°55' W 122°22'0 0.0
2015-Jan-11 01:31N 37°55' W 122°22'0 0.0
2015-Jan-11 00:27N 37°55' W 122°22'0 0.0
2015-Jan-10 23:33N 37°55' W 122°22'0 0.0
2015-Jan-10 22:26N 37°55' W 122°22'0 0.0
2015-Jan-10 21:33N 37°55' W 122°22'1 1.3
2015-Jan-10 20:33N 37°54' W 122°23'3 2.7
2015-Jan-10 19:33N 37°54' W 122°27'10 9.6
2015-Jan-10 18:33N 38°03' W 122°21'10 9.8
2015-Jan-10 17:33N 38°02' W 122°08'6 5.6
2015-Jan-10 16:29N 38°04' W 122°01'0 0.0
2015-Jan-10 15:29N 38°04' W 122°01'0 0.0
2015-Jan-10 14:29N 38°04' W 122°01'0 0.0
2015-Jan-10 13:28N 38°04' W 122°01'0 0.0
2015-Jan-10 12:28N 38°04' W 122°01'0 0.0
2015-Jan-10 10:15N 38°04' W 122°01'0 0.0
2015-Jan-10 08:26N 38°04' W 122°01'0 0.0
2015-Jan-10 07:19N 38°04' W 122°01'0 0.0
2015-Jan-10 06:19N 38°04' W 122°01'0 0.0
2015-Jan-10 05:31N 38°04' W 122°01'0 0.0
2015-Jan-10 04:30N 38°04' W 122°01'0 0.0
2015-Jan-10 03:30N 38°04' W 122°01'0 0.0
2015-Jan-10 02:29N 38°04' W 122°01'0 0.0
2015-Jan-09 17:25N 38°04' W 122°01'0 0.0
2015-Jan-09 16:31N 38°04' W 122°01'0 0.0
2015-Jan-09 15:25N 38°04' W 122°01'0 0.0
2015-Jan-09 14:30N 38°04' W 122°01'0 0.0
2015-Jan-09 13:18N 38°04' W 122°01'0 0.0
2015-Jan-09 12:29N 38°04' W 122°01'0 0.0
2015-Jan-09 11:29N 38°04' W 122°01'0 0.0
2015-Jan-09 06:15N 38°04' W 122°01'0 0.0
2015-Jan-09 05:32N 38°04' W 122°01'0 0.0
2015-Jan-09 02:31N 38°04' W 122°01'0 0.0
2015-Jan-09 01:25N 38°04' W 122°01'0 0.0
2015-Jan-09 00:30N 38°04' W 122°01'0 0.0
2015-Jan-08 22:05N 38°04' W 122°01'0 0.0
2015-Jan-08 21:23N 38°04' W 122°01'0 0.0
2015-Jan-08 20:10N 38°04' W 122°01'0 0.0
2015-Jan-08 19:28N 38°04' W 122°01'0 0.0
2015-Jan-08 17:33N 38°04' W 122°01'0 0.0
2015-Jan-08 16:33N 38°04' W 122°01'0 0.0
2015-Jan-08 15:26N 38°04' W 122°01'0 0.0
2015-Jan-08 14:32N 38°04' W 122°01'0 0.0
2015-Jan-08 12:31N 38°04' W 122°01'0 0.0
2015-Jan-08 07:29N 38°04' W 122°01'0 0.0
2015-Jan-08 06:04N 38°04' W 122°01'0 0.0
2015-Jan-08 05:28N 38°04' W 122°01'0 0.0
2015-Jan-08 04:27N 38°04' W 122°01'0 0.0
2015-Jan-08 03:45N 38°04' W 122°01'0 0.0
2015-Jan-07 18:29N 38°04' W 122°01'0 0.0
2015-Jan-07 17:05N 38°04' W 122°01'0 0.0
2015-Jan-07 16:28N 38°04' W 122°01'0 0.0
2015-Jan-07 15:28N 38°04' W 122°01'0 0.0
2015-Jan-07 14:34N 38°04' W 122°01'0 0.0
2015-Jan-07 13:33N 38°04' W 122°01'0 0.0
2015-Jan-07 12:33N 38°04' W 122°01'0 0.0
2015-Jan-07 11:32N 38°04' W 122°01'0 0.0
2015-Jan-07 10:32N 38°04' W 122°01'0 0.0
2015-Jan-07 09:31N 38°04' W 122°01'0 0.0
2015-Jan-07 08:25N 38°04' W 122°01'0 0.0
2015-Jan-07 07:30N 38°04' W 122°01'0 0.0
2015-Jan-07 06:30N 38°04' W 122°01'0 0.0
2015-Jan-07 05:30N 38°04' W 122°01'0 0.0
2015-Jan-07 04:29N 38°04' W 122°01'0 0.0
2015-Jan-07 03:29N 38°04' W 122°01'0 0.0
2015-Jan-07 02:28N 38°04' W 122°01'0 0.0
2015-Jan-07 01:22N 38°04' W 122°01'0 0.0
2015-Jan-07 00:33N 38°04' W 122°01'0 0.0
2015-Jan-06 23:15N 38°04' W 122°01'0 0.0
2015-Jan-06 22:20N 38°04' W 122°01'0 0.0
2015-Jan-06 21:32N 38°04' W 122°01'0 0.0
2015-Jan-06 20:26N 38°04' W 122°01'0 0.0
2015-Jan-06 19:31N 38°04' W 122°01'0 0.0
2015-Jan-06 18:31N 38°04' W 122°01'0 0.0
2015-Jan-06 16:24N 38°04' W 122°01'0 0.0
2015-Jan-06 15:31N 38°04' W 122°01'0 0.0
2015-Jan-06 14:23N 38°04' W 122°01'0 0.0
2015-Jan-06 13:17N 38°04' W 122°01'0 0.0
2015-Jan-06 12:28N 38°04' W 122°01'0 0.0
2015-Jan-06 11:22N 38°04' W 122°01'0 0.0
2015-Jan-06 10:33N 38°04' W 122°01'0 0.0
2015-Jan-06 09:33N 38°04' W 122°01'0 0.0
2015-Jan-06 08:33N 38°04' W 122°01'0 0.0
2015-Jan-06 07:26N 38°04' W 122°01'0 0.0
2015-Jan-06 06:26N 38°04' W 122°01'0 0.0
2015-Jan-06 05:19N 38°04' W 122°01'0 0.0
2015-Jan-06 04:31N 38°04' W 122°01'0 0.0
2015-Jan-06 03:30N 38°04' W 122°01'0 0.0
2015-Jan-06 02:30N 38°04' W 122°01'0 0.0
2015-Jan-06 01:23N 38°04' W 122°01'0 0.0
2015-Jan-06 00:29N 38°04' W 122°01'0 0.0
2015-Jan-05 20:09N 38°04' W 122°01'0 0.0
2015-Jan-05 19:21N 38°04' W 122°01'  

Dump ship's entire track history